メインページ
METAR-TAF:

METAR-TAF

空港 :

ウアリ・ブーメディアン空港

アルジェ, アルジェリア

緯度: 36-43N, 経度: 003-15E, 海抜: 25m

現時点の気象観測

当レポートは19分前の09:00(UTC)に作成
北東の風 6kt、から東/南東の間で変化する
気温 26°C
湿度 65%
気圧 1018 hPa
視程10km以上
1,500メートル以下は雲なし、積乱雲なし

METAR: DAAG 200900Z 05006KT 360V110 CAVOK 26/19 Q1018

時間: 10:19 (09:19 UTC)

予報

当レポートは4時間19分前の05:00(UTC)に作成
予報は20日の 06時(UTC)から 21日の 06時(UTC)まで有効
変向風 2kt
視程: 6000m
高度1300ftの雲はほとんどない
20日の 08時(UTC)から 20日の 11時(UTC)まで徐々に
北東の風 10kt
確率 30% :
20日の 08時(UTC)から 20日の 15時(UTC)まで一時的に
高度2600ftの雲はほとんどない, 塔状積雲.
20日の 18時(UTC)から 20日の 21時(UTC)まで徐々に
変向風 2kt
確率 30% :
20日の 22時(UTC)から 21日の 04時(UTC)まで一時的に
視程: 4000m
高度1500ftの千切れ雲あり

TAF: DAAG 200500Z 2006/2106 VRB02KT 6000 FEW013 BECMG 2008/2011 04010KT PROB30 TEMPO 2008/2015 FEW026TCU BECMG 2018/2021 VRB02KT PROB30 TEMPO 2022/2104 4000 BR BKN015

4,000以上の空港の気象観測と天気予報(METAR報とTAF報)

利用可能な観測所は地図上に黄色い丸と赤い丸で示す。

丸の上にカーソルを重ねると観測所名を参照できる。

次にクリックすると気象観測と天気予報を参照できる。

マップの切り替え:黒色「×」印の緑ボタンをクリックして拡大、「-」印の緑ボタンをクリックして縮小、緑色の三角印をクリックして隣りの地図に切り替え


METAR-TAF: